sensor_id;sensor_type;location;lat;lon;timestamp;temperature;humidity
5128;DHT22;2582;48.770;9.190;2023-12-20T00:00:59;8.10;99.90
5128;DHT22;2582;48.770;9.190;2023-12-20T00:03:24;8.10;99.90
5128;DHT22;2582;48.770;9.190;2023-12-20T00:05:50;8.10;99.90
5128;DHT22;2582;48.770;9.190;2023-12-20T00:08:16;8.10;99.90
5128;DHT22;2582;48.770;9.190;2023-12-20T00:10:42;8.10;99.90
5128;DHT22;2582;48.770;9.190;2023-12-20T00:13:08;8.10;99.90
5128;DHT22;2582;48.770;9.190;2023-12-20T00:15:34;8.20;99.90
5128;DHT22;2582;48.770;9.190;2023-12-20T00:18:00;8.30;99.90
5128;DHT22;2582;48.770;9.190;2023-12-20T00:20:26;8.30;99.90
5128;DHT22;2582;48.770;9.190;2023-12-20T00:22:54;8.30;99.90
5128;DHT22;2582;48.770;9.190;2023-12-20T00:25:20;8.40;99.90
5128;DHT22;2582;48.770;9.190;2023-12-20T00:27:45;8.30;99.90
5128;DHT22;2582;48.770;9.190;2023-12-20T00:30:11;8.40;99.90
5128;DHT22;2582;48.770;9.190;2023-12-20T00:32:37;8.30;99.90
5128;DHT22;2582;48.770;9.190;2023-12-20T00:35:03;8.30;99.90
5128;DHT22;2582;48.770;9.190;2023-12-20T00:37:29;8.40;99.90
5128;DHT22;2582;48.770;9.190;2023-12-20T00:39:54;8.30;99.90
5128;DHT22;2582;48.770;9.190;2023-12-20T00:42:20;8.40;99.90
5128;DHT22;2582;48.770;9.190;2023-12-20T00:44:46;8.20;99.90
5128;DHT22;2582;48.770;9.190;2023-12-20T00:47:11;8.20;99.90
5128;DHT22;2582;48.770;9.190;2023-12-20T00:49:37;8.20;99.90
5128;DHT22;2582;48.770;9.190;2023-12-20T00:52:03;8.10;99.90
5128;DHT22;2582;48.770;9.190;2023-12-20T00:54:28;8.30;99.90
5128;DHT22;2582;48.770;9.190;2023-12-20T00:56:56;8.30;99.90
5128;DHT22;2582;48.770;9.190;2023-12-20T00:59:21;8.30;99.90
5128;DHT22;2582;48.770;9.190;2023-12-20T01:01:47;8.30;99.90
5128;DHT22;2582;48.770;9.190;2023-12-20T01:04:13;8.10;99.90
5128;DHT22;2582;48.770;9.190;2023-12-20T01:06:38;8.10;99.90
5128;DHT22;2582;48.770;9.190;2023-12-20T01:09:04;8.20;99.90
5128;DHT22;2582;48.770;9.190;2023-12-20T01:11:29;8.00;99.90
5128;DHT22;2582;48.770;9.190;2023-12-20T01:13:55;8.10;99.90
5128;DHT22;2582;48.770;9.190;2023-12-20T01:16:20;7.90;99.90
5128;DHT22;2582;48.770;9.190;2023-12-20T01:18:46;8.00;99.90
5128;DHT22;2582;48.770;9.190;2023-12-20T01:21:12;8.00;99.90
5128;DHT22;2582;48.770;9.190;2023-12-20T01:23:38;7.90;99.90
5128;DHT22;2582;48.770;9.190;2023-12-20T01:26:03;8.10;99.90
5128;DHT22;2582;48.770;9.190;2023-12-20T01:28:30;8.10;99.90
5128;DHT22;2582;48.770;9.190;2023-12-20T01:30:57;8.10;99.90
5128;DHT22;2582;48.770;9.190;2023-12-20T01:33:23;8.00;99.90
5128;DHT22;2582;48.770;9.190;2023-12-20T01:35:48;8.10;99.90
5128;DHT22;2582;48.770;9.190;2023-12-20T01:38:14;8.30;99.90
5128;DHT22;2582;48.770;9.190;2023-12-20T01:40:40;8.40;99.90
5128;DHT22;2582;48.770;9.190;2023-12-20T01:43:09;8.40;99.90
5128;DHT22;2582;48.770;9.190;2023-12-20T01:45:35;8.50;99.90
5128;DHT22;2582;48.770;9.190;2023-12-20T01:48:01;8.50;99.90
5128;DHT22;2582;48.770;9.190;2023-12-20T01:50:28;8.40;99.90
5128;DHT22;2582;48.770;9.190;2023-12-20T01:52:56;8.50;99.90
5128;DHT22;2582;48.770;9.190;2023-12-20T01:55:23;8.50;99.90
5128;DHT22;2582;48.770;9.190;2023-12-20T01:57:49;8.50;99.90
5128;DHT22;2582;48.770;9.190;2023-12-20T02:00:16;8.50;99.90
5128;DHT22;2582;48.770;9.190;2023-12-20T02:02:43;8.50;99.90
5128;DHT22;2582;48.770;9.190;2023-12-20T02:05:10;8.60;99.90
5128;DHT22;2582;48.770;9.190;2023-12-20T02:07:36;8.50;99.90
5128;DHT22;2582;48.770;9.190;2023-12-20T02:10:02;8.60;99.90
5128;DHT22;2582;48.770;9.190;2023-12-20T02:12:29;8.60;99.90
5128;DHT22;2582;48.770;9.190;2023-12-20T02:14:54;8.60;99.90
5128;DHT22;2582;48.770;9.190;2023-12-20T02:17:20;8.40;99.90
5128;DHT22;2582;48.770;9.190;2023-12-20T02:19:46;8.50;99.90
5128;DHT22;2582;48.770;9.190;2023-12-20T02:22:12;8.70;99.90
5128;DHT22;2582;48.770;9.190;2023-12-20T02:24:38;8.60;99.90
5128;DHT22;2582;48.770;9.190;2023-12-20T02:27:06;8.60;99.90
5128;DHT22;2582;48.770;9.190;2023-12-20T02:29:35;8.70;99.90
5128;DHT22;2582;48.770;9.190;2023-12-20T02:32:02;8.70;99.90
5128;DHT22;2582;48.770;9.190;2023-12-20T02:34:28;8.80;99.90
5128;DHT22;2582;48.770;9.190;2023-12-20T02:36:54;8.70;99.90
5128;DHT22;2582;48.770;9.190;2023-12-20T02:39:21;8.80;99.90
5128;DHT22;2582;48.770;9.190;2023-12-20T02:41:47;8.70;99.90
5128;DHT22;2582;48.770;9.190;2023-12-20T02:44:13;8.70;99.90
5128;DHT22;2582;48.770;9.190;2023-12-20T02:46:38;8.80;99.90
5128;DHT22;2582;48.770;9.190;2023-12-20T02:49:04;8.80;99.90
5128;DHT22;2582;48.770;9.190;2023-12-20T02:51:29;8.80;99.90
5128;DHT22;2582;48.770;9.190;2023-12-20T02:53:55;8.80;99.90
5128;DHT22;2582;48.770;9.190;2023-12-20T02:56:20;8.80;99.90
5128;DHT22;2582;48.770;9.190;2023-12-20T02:58:46;8.70;99.90
5128;DHT22;2582;48.770;9.190;2023-12-20T03:01:12;8.70;99.90
5128;DHT22;2582;48.770;9.190;2023-12-20T03:03:37;8.70;99.90
5128;DHT22;2582;48.770;9.190;2023-12-20T03:06:03;8.60;99.90
5128;DHT22;2582;48.770;9.190;2023-12-20T03:08:28;8.70;99.90
5128;DHT22;2582;48.770;9.190;2023-12-20T03:10:54;8.60;99.90
5128;DHT22;2582;48.770;9.190;2023-12-20T03:13:19;8.60;99.90
5128;DHT22;2582;48.770;9.190;2023-12-20T03:15:45;8.60;99.90
5128;DHT22;2582;48.770;9.190;2023-12-20T03:18:11;8.60;99.90
5128;DHT22;2582;48.770;9.190;2023-12-20T03:20:37;8.50;99.90
5128;DHT22;2582;48.770;9.190;2023-12-20T03:23:03;8.60;99.90
5128;DHT22;2582;48.770;9.190;2023-12-20T03:25:29;8.60;99.90
5128;DHT22;2582;48.770;9.190;2023-12-20T03:27:55;8.50;99.90
5128;DHT22;2582;48.770;9.190;2023-12-20T03:30:20;8.20;99.90
5128;DHT22;2582;48.770;9.190;2023-12-20T03:32:47;8.30;99.90
5128;DHT22;2582;48.770;9.190;2023-12-20T03:35:12;8.40;99.90
5128;DHT22;2582;48.770;9.190;2023-12-20T03:37:38;8.40;99.90
5128;DHT22;2582;48.770;9.190;2023-12-20T03:40:04;8.40;99.90
5128;DHT22;2582;48.770;9.190;2023-12-20T03:42:30;8.40;99.90
5128;DHT22;2582;48.770;9.190;2023-12-20T03:44:56;8.20;99.90
5128;DHT22;2582;48.770;9.190;2023-12-20T03:47:21;8.10;99.90
5128;DHT22;2582;48.770;9.190;2023-12-20T03:49:47;7.90;99.90
5128;DHT22;2582;48.770;9.190;2023-12-20T03:52:12;8.00;99.90
5128;DHT22;2582;48.770;9.190;2023-12-20T03:54:38;7.90;99.90
5128;DHT22;2582;48.770;9.190;2023-12-20T03:57:04;8.00;99.90
5128;DHT22;2582;48.770;9.190;2023-12-20T03:59:30;7.90;99.90
5128;DHT22;2582;48.770;9.190;2023-12-20T04:01:59;7.80;99.90
5128;DHT22;2582;48.770;9.190;2023-12-20T04:04:25;7.90;99.90
5128;DHT22;2582;48.770;9.190;2023-12-20T04:06:51;8.10;99.90
5128;DHT22;2582;48.770;9.190;2023-12-20T04:09:16;8.10;99.90
5128;DHT22;2582;48.770;9.190;2023-12-20T04:11:42;8.10;99.90
5128;DHT22;2582;48.770;9.190;2023-12-20T04:14:07;7.90;99.90
5128;DHT22;2582;48.770;9.190;2023-12-20T04:16:33;7.90;99.90
5128;DHT22;2582;48.770;9.190;2023-12-20T04:18:58;8.00;99.90
5128;DHT22;2582;48.770;9.190;2023-12-20T04:21:24;8.10;99.90
5128;DHT22;2582;48.770;9.190;2023-12-20T04:23:50;8.30;99.90
5128;DHT22;2582;48.770;9.190;2023-12-20T04:26:15;8.20;99.90
5128;DHT22;2582;48.770;9.190;2023-12-20T04:28:41;8.10;99.90
5128;DHT22;2582;48.770;9.190;2023-12-20T04:31:06;8.00;99.90
5128;DHT22;2582;48.770;9.190;2023-12-20T04:33:32;8.00;99.90
5128;DHT22;2582;48.770;9.190;2023-12-20T04:35:58;8.00;99.90
5128;DHT22;2582;48.770;9.190;2023-12-20T04:38:23;8.00;99.90
5128;DHT22;2582;48.770;9.190;2023-12-20T04:40:49;8.00;99.90
5128;DHT22;2582;48.770;9.190;2023-12-20T04:43:14;7.90;99.90
5128;DHT22;2582;48.770;9.190;2023-12-20T04:45:40;8.10;99.90
5128;DHT22;2582;48.770;9.190;2023-12-20T04:48:06;8.00;99.90
5128;DHT22;2582;48.770;9.190;2023-12-20T04:50:31;8.10;99.90
5128;DHT22;2582;48.770;9.190;2023-12-20T04:52:57;8.00;99.90
5128;DHT22;2582;48.770;9.190;2023-12-20T04:55:22;8.20;99.90
5128;DHT22;2582;48.770;9.190;2023-12-20T04:57:48;8.20;99.90
5128;DHT22;2582;48.770;9.190;2023-12-20T05:00:14;8.10;99.90
5128;DHT22;2582;48.770;9.190;2023-12-20T05:02:41;7.80;99.90
5128;DHT22;2582;48.770;9.190;2023-12-20T05:05:07;7.90;99.90
5128;DHT22;2582;48.770;9.190;2023-12-20T05:07:33;8.00;99.90
5128;DHT22;2582;48.770;9.190;2023-12-20T05:09:59;7.90;99.90
5128;DHT22;2582;48.770;9.190;2023-12-20T05:12:24;7.90;99.90
5128;DHT22;2582;48.770;9.190;2023-12-20T05:14:52;7.90;99.90
5128;DHT22;2582;48.770;9.190;2023-12-20T05:17:17;7.60;99.90
5128;DHT22;2582;48.770;9.190;2023-12-20T05:19:43;7.60;99.90
5128;DHT22;2582;48.770;9.190;2023-12-20T05:22:09;7.70;99.90
5128;DHT22;2582;48.770;9.190;2023-12-20T05:24:35;7.50;99.90
5128;DHT22;2582;48.770;9.190;2023-12-20T05:27:00;7.60;99.90
5128;DHT22;2582;48.770;9.190;2023-12-20T05:29:26;7.50;99.90
5128;DHT22;2582;48.770;9.190;2023-12-20T05:31:51;7.30;99.90
5128;DHT22;2582;48.770;9.190;2023-12-20T05:34:17;7.50;99.90
5128;DHT22;2582;48.770;9.190;2023-12-20T05:36:42;7.70;99.90
5128;DHT22;2582;48.770;9.190;2023-12-20T05:39:08;7.70;99.90
5128;DHT22;2582;48.770;9.190;2023-12-20T05:41:34;7.60;99.90
5128;DHT22;2582;48.770;9.190;2023-12-20T05:43:59;7.50;99.90
5128;DHT22;2582;48.770;9.190;2023-12-20T05:46:25;7.70;99.90
5128;DHT22;2582;48.770;9.190;2023-12-20T05:48:51;7.60;99.90
5128;DHT22;2582;48.770;9.190;2023-12-20T05:51:17;7.50;99.90
5128;DHT22;2582;48.770;9.190;2023-12-20T05:53:44;7.60;99.90
5128;DHT22;2582;48.770;9.190;2023-12-20T05:56:10;7.70;99.90
5128;DHT22;2582;48.770;9.190;2023-12-20T05:58:35;7.70;99.90
5128;DHT22;2582;48.770;9.190;2023-12-20T06:01:04;7.60;99.90
5128;DHT22;2582;48.770;9.190;2023-12-20T06:03:29;7.60;99.90
5128;DHT22;2582;48.770;9.190;2023-12-20T06:05:55;7.40;99.90
5128;DHT22;2582;48.770;9.190;2023-12-20T06:08:21;7.40;99.90
5128;DHT22;2582;48.770;9.190;2023-12-20T06:10:46;7.60;99.90
5128;DHT22;2582;48.770;9.190;2023-12-20T06:13:12;7.80;99.90
5128;DHT22;2582;48.770;9.190;2023-12-20T06:15:39;7.80;99.90
5128;DHT22;2582;48.770;9.190;2023-12-20T06:18:05;7.60;99.90
5128;DHT22;2582;48.770;9.190;2023-12-20T06:20:31;7.50;99.90
5128;DHT22;2582;48.770;9.190;2023-12-20T06:22:57;7.50;99.90
5128;DHT22;2582;48.770;9.190;2023-12-20T06:25:22;7.50;99.90
5128;DHT22;2582;48.770;9.190;2023-12-20T06:27:48;7.60;99.90
5128;DHT22;2582;48.770;9.190;2023-12-20T06:30:15;7.80;99.90
5128;DHT22;2582;48.770;9.190;2023-12-20T06:32:41;7.90;99.90
5128;DHT22;2582;48.770;9.190;2023-12-20T06:35:08;7.70;99.90
5128;DHT22;2582;48.770;9.190;2023-12-20T06:37:34;7.60;99.90
5128;DHT22;2582;48.770;9.190;2023-12-20T06:40:00;7.60;99.90
5128;DHT22;2582;48.770;9.190;2023-12-20T06:42:26;7.60;99.90
5128;DHT22;2582;48.770;9.190;2023-12-20T06:44:51;7.70;99.90
5128;DHT22;2582;48.770;9.190;2023-12-20T06:47:17;7.60;99.90
5128;DHT22;2582;48.770;9.190;2023-12-20T06:49:42;7.50;99.90
5128;DHT22;2582;48.770;9.190;2023-12-20T06:52:08;7.70;99.90
5128;DHT22;2582;48.770;9.190;2023-12-20T06:54:33;7.70;99.90
5128;DHT22;2582;48.770;9.190;2023-12-20T06:57:00;7.70;99.90
5128;DHT22;2582;48.770;9.190;2023-12-20T06:59:25;7.60;99.90
5128;DHT22;2582;48.770;9.190;2023-12-20T07:01:51;7.70;99.90
5128;DHT22;2582;48.770;9.190;2023-12-20T07:04:17;7.80;99.90
5128;DHT22;2582;48.770;9.190;2023-12-20T07:06:47;7.80;99.90
5128;DHT22;2582;48.770;9.190;2023-12-20T07:09:13;7.70;99.90
5128;DHT22;2582;48.770;9.190;2023-12-20T07:11:39;7.80;99.90
5128;DHT22;2582;48.770;9.190;2023-12-20T07:14:05;7.90;99.90
5128;DHT22;2582;48.770;9.190;2023-12-20T07:16:30;8.00;99.90
5128;DHT22;2582;48.770;9.190;2023-12-20T07:18:56;8.10;99.90
5128;DHT22;2582;48.770;9.190;2023-12-20T07:21:22;8.20;99.90
5128;DHT22;2582;48.770;9.190;2023-12-20T07:23:48;8.30;99.90
5128;DHT22;2582;48.770;9.190;2023-12-20T07:26:14;8.30;99.90
5128;DHT22;2582;48.770;9.190;2023-12-20T07:28:40;8.10;99.90
5128;DHT22;2582;48.770;9.190;2023-12-20T07:31:06;8.10;99.90
5128;DHT22;2582;48.770;9.190;2023-12-20T07:33:31;8.10;99.90
5128;DHT22;2582;48.770;9.190;2023-12-20T07:35:57;8.00;99.90
5128;DHT22;2582;48.770;9.190;2023-12-20T07:38:23;7.80;99.90
5128;DHT22;2582;48.770;9.190;2023-12-20T07:40:49;7.60;99.90
5128;DHT22;2582;48.770;9.190;2023-12-20T07:43:14;7.50;99.90
5128;DHT22;2582;48.770;9.190;2023-12-20T07:45:40;7.40;99.90
5128;DHT22;2582;48.770;9.190;2023-12-20T07:48:07;7.40;99.90
5128;DHT22;2582;48.770;9.190;2023-12-20T07:50:33;7.40;99.90
5128;DHT22;2582;48.770;9.190;2023-12-20T07:52:58;7.30;99.90
5128;DHT22;2582;48.770;9.190;2023-12-20T07:55:26;7.30;99.90
5128;DHT22;2582;48.770;9.190;2023-12-20T07:57:51;7.40;99.90
5128;DHT22;2582;48.770;9.190;2023-12-20T08:00:17;7.40;99.90
5128;DHT22;2582;48.770;9.190;2023-12-20T08:02:43;7.40;99.90
5128;DHT22;2582;48.770;9.190;2023-12-20T08:05:08;7.50;99.90
5128;DHT22;2582;48.770;9.190;2023-12-20T08:07:34;7.30;99.90
5128;DHT22;2582;48.770;9.190;2023-12-20T08:10:00;7.40;99.90
5128;DHT22;2582;48.770;9.190;2023-12-20T08:12:26;7.40;99.90
5128;DHT22;2582;48.770;9.190;2023-12-20T08:14:53;7.30;99.90
5128;DHT22;2582;48.770;9.190;2023-12-20T08:17:19;7.20;99.90
5128;DHT22;2582;48.770;9.190;2023-12-20T08:19:45;7.20;99.90
5128;DHT22;2582;48.770;9.190;2023-12-20T08:22:11;7.20;99.90
5128;DHT22;2582;48.770;9.190;2023-12-20T08:24:36;7.30;99.90
5128;DHT22;2582;48.770;9.190;2023-12-20T08:27:02;7.30;99.90
5128;DHT22;2582;48.770;9.190;2023-12-20T08:29:28;7.20;99.90
5128;DHT22;2582;48.770;9.190;2023-12-20T08:31:54;7.20;99.90
5128;DHT22;2582;48.770;9.190;2023-12-20T08:34:20;7.20;99.90
5128;DHT22;2582;48.770;9.190;2023-12-20T08:36:46;7.10;99.90
5128;DHT22;2582;48.770;9.190;2023-12-20T08:39:11;7.20;99.90
5128;DHT22;2582;48.770;9.190;2023-12-20T08:41:37;7.20;99.90
5128;DHT22;2582;48.770;9.190;2023-12-20T08:44:02;7.10;99.90
5128;DHT22;2582;48.770;9.190;2023-12-20T08:46:29;7.10;99.90
5128;DHT22;2582;48.770;9.190;2023-12-20T08:48:54;7.10;99.90
5128;DHT22;2582;48.770;9.190;2023-12-20T08:51:20;7.10;99.90
5128;DHT22;2582;48.770;9.190;2023-12-20T08:53:48;7.00;99.90
5128;DHT22;2582;48.770;9.190;2023-12-20T08:56:14;7.00;99.90
5128;DHT22;2582;48.770;9.190;2023-12-20T08:58:40;7.10;99.90
5128;DHT22;2582;48.770;9.190;2023-12-20T09:01:05;7.10;99.90
5128;DHT22;2582;48.770;9.190;2023-12-20T09:03:31;7.00;99.90
5128;DHT22;2582;48.770;9.190;2023-12-20T09:05:56;7.00;99.90
5128;DHT22;2582;48.770;9.190;2023-12-20T09:08:22;7.10;99.90
5128;DHT22;2582;48.770;9.190;2023-12-20T09:10:47;7.00;99.90
5128;DHT22;2582;48.770;9.190;2023-12-20T09:13:13;7.20;99.90
5128;DHT22;2582;48.770;9.190;2023-12-20T09:15:38;7.30;99.90
5128;DHT22;2582;48.770;9.190;2023-12-20T09:18:04;7.40;99.90
5128;DHT22;2582;48.770;9.190;2023-12-20T09:20:30;7.20;99.90
5128;DHT22;2582;48.770;9.190;2023-12-20T09:22:55;7.40;99.90
5128;DHT22;2582;48.770;9.190;2023-12-20T09:25:21;7.20;99.90
5128;DHT22;2582;48.770;9.190;2023-12-20T09:27:48;7.10;99.90
5128;DHT22;2582;48.770;9.190;2023-12-20T09:30:14;7.00;99.90
5128;DHT22;2582;48.770;9.190;2023-12-20T09:32:39;7.10;99.90
5128;DHT22;2582;48.770;9.190;2023-12-20T09:35:05;7.20;99.90
5128;DHT22;2582;48.770;9.190;2023-12-20T09:37:32;7.20;99.90
5128;DHT22;2582;48.770;9.190;2023-12-20T09:39:57;7.40;99.90
5128;DHT22;2582;48.770;9.190;2023-12-20T09:42:51;7.20;99.90
5128;DHT22;2582;48.770;9.190;2023-12-20T09:45:20;7.00;99.90
5128;DHT22;2582;48.770;9.190;2023-12-20T09:47:48;7.00;99.90
5128;DHT22;2582;48.770;9.190;2023-12-20T09:50:14;7.00;99.90
5128;DHT22;2582;48.770;9.190;2023-12-20T09:52:40;7.00;99.90
5128;DHT22;2582;48.770;9.190;2023-12-20T09:55:07;6.90;99.90
5128;DHT22;2582;48.770;9.190;2023-12-20T09:57:33;7.00;99.90
5128;DHT22;2582;48.770;9.190;2023-12-20T09:59:59;7.10;99.90
5128;DHT22;2582;48.770;9.190;2023-12-20T10:02:25;7.20;99.90
5128;DHT22;2582;48.770;9.190;2023-12-20T10:04:55;7.10;99.90
5128;DHT22;2582;48.770;9.190;2023-12-20T10:07:21;7.10;99.90
5128;DHT22;2582;48.770;9.190;2023-12-20T10:09:48;7.10;99.90
5128;DHT22;2582;48.770;9.190;2023-12-20T10:12:14;7.20;99.90
5128;DHT22;2582;48.770;9.190;2023-12-20T10:14:39;7.20;99.90
5128;DHT22;2582;48.770;9.190;2023-12-20T10:17:05;7.20;99.90
5128;DHT22;2582;48.770;9.190;2023-12-20T10:19:32;7.40;99.90
5128;DHT22;2582;48.770;9.190;2023-12-20T10:21:59;7.60;99.90
5128;DHT22;2582;48.770;9.190;2023-12-20T10:24:25;7.60;99.90
5128;DHT22;2582;48.770;9.190;2023-12-20T10:27:04;7.70;99.90
5128;DHT22;2582;48.770;9.190;2023-12-20T10:29:33;7.70;99.90
5128;DHT22;2582;48.770;9.190;2023-12-20T10:31:59;7.60;99.90
5128;DHT22;2582;48.770;9.190;2023-12-20T10:34:25;7.60;99.90
5128;DHT22;2582;48.770;9.190;2023-12-20T10:36:52;7.60;99.90
5128;DHT22;2582;48.770;9.190;2023-12-20T10:39:17;7.70;99.90
5128;DHT22;2582;48.770;9.190;2023-12-20T10:41:45;7.60;99.90
5128;DHT22;2582;48.770;9.190;2023-12-20T10:44:12;7.60;99.90
5128;DHT22;2582;48.770;9.190;2023-12-20T10:46:40;7.60;99.90
5128;DHT22;2582;48.770;9.190;2023-12-20T10:49:07;7.70;99.90
5128;DHT22;2582;48.770;9.190;2023-12-20T10:51:34;7.80;99.90
5128;DHT22;2582;48.770;9.190;2023-12-20T10:54:00;7.90;99.90
5128;DHT22;2582;48.770;9.190;2023-12-20T10:56:28;7.90;99.90
5128;DHT22;2582;48.770;9.190;2023-12-20T10:58:58;8.00;99.90
5128;DHT22;2582;48.770;9.190;2023-12-20T11:01:29;7.90;99.90
5128;DHT22;2582;48.770;9.190;2023-12-20T11:03:55;8.10;99.90
5128;DHT22;2582;48.770;9.190;2023-12-20T11:06:40;8.00;99.90
5128;DHT22;2582;48.770;9.190;2023-12-20T11:14:53;7.80;99.90
5128;DHT22;2582;48.770;9.190;2023-12-20T11:17:21;7.70;99.90
5128;DHT22;2582;48.770;9.190;2023-12-20T11:22:20;7.90;99.90
5128;DHT22;2582;48.770;9.190;2023-12-20T11:24:46;8.00;99.90
5128;DHT22;2582;48.770;9.190;2023-12-20T11:27:13;8.10;99.90
5128;DHT22;2582;48.770;9.190;2023-12-20T11:29:38;8.00;99.90
5128;DHT22;2582;48.770;9.190;2023-12-20T11:34:51;7.70;99.90
5128;DHT22;2582;48.770;9.190;2023-12-20T11:37:19;7.70;99.90
5128;DHT22;2582;48.770;9.190;2023-12-20T11:39:45;7.70;99.90
5128;DHT22;2582;48.770;9.190;2023-12-20T11:42:19;7.60;99.90
5128;DHT22;2582;48.770;9.190;2023-12-20T11:44:45;7.50;99.90
5128;DHT22;2582;48.770;9.190;2023-12-20T11:47:12;7.50;99.90
5128;DHT22;2582;48.770;9.190;2023-12-20T11:49:39;7.50;99.90
5128;DHT22;2582;48.770;9.190;2023-12-20T11:52:04;7.50;99.90
5128;DHT22;2582;48.770;9.190;2023-12-20T11:54:30;7.50;99.90
5128;DHT22;2582;48.770;9.190;2023-12-20T11:56:56;7.50;99.90
5128;DHT22;2582;48.770;9.190;2023-12-20T11:59:21;7.50;99.90
5128;DHT22;2582;48.770;9.190;2023-12-20T12:01:53;7.60;99.90
5128;DHT22;2582;48.770;9.190;2023-12-20T12:04:21;7.70;99.90
5128;DHT22;2582;48.770;9.190;2023-12-20T12:06:47;7.60;99.90
5128;DHT22;2582;48.770;9.190;2023-12-20T12:09:12;7.50;99.90
5128;DHT22;2582;48.770;9.190;2023-12-20T12:11:38;7.40;99.90
5128;DHT22;2582;48.770;9.190;2023-12-20T12:14:03;7.50;99.90
5128;DHT22;2582;48.770;9.190;2023-12-20T12:16:29;7.60;99.90
5128;DHT22;2582;48.770;9.190;2023-12-20T12:18:58;7.60;99.90
5128;DHT22;2582;48.770;9.190;2023-12-20T12:21:24;7.60;99.90
5128;DHT22;2582;48.770;9.190;2023-12-20T12:23:50;7.60;99.90
5128;DHT22;2582;48.770;9.190;2023-12-20T12:26:16;7.80;99.90
5128;DHT22;2582;48.770;9.190;2023-12-20T12:28:42;7.90;99.90
5128;DHT22;2582;48.770;9.190;2023-12-20T12:31:09;8.10;99.90
5128;DHT22;2582;48.770;9.190;2023-12-20T12:33:38;8.20;99.90
5128;DHT22;2582;48.770;9.190;2023-12-20T12:36:05;8.20;99.90
5128;DHT22;2582;48.770;9.190;2023-12-20T12:38:32;8.30;99.90
5128;DHT22;2582;48.770;9.190;2023-12-20T12:40:58;8.30;99.90
5128;DHT22;2582;48.770;9.190;2023-12-20T12:43:24;8.40;99.90
5128;DHT22;2582;48.770;9.190;2023-12-20T12:45:49;8.50;99.90
5128;DHT22;2582;48.770;9.190;2023-12-20T12:48:15;8.50;99.90
5128;DHT22;2582;48.770;9.190;2023-12-20T12:50:40;8.40;99.90
5128;DHT22;2582;48.770;9.190;2023-12-20T12:53:06;8.40;99.90
5128;DHT22;2582;48.770;9.190;2023-12-20T12:55:32;8.40;99.90
5128;DHT22;2582;48.770;9.190;2023-12-20T12:57:58;8.30;99.90
5128;DHT22;2582;48.770;9.190;2023-12-20T13:00:23;8.20;99.90
5128;DHT22;2582;48.770;9.190;2023-12-20T13:02:50;8.30;99.90
5128;DHT22;2582;48.770;9.190;2023-12-20T13:05:15;8.10;99.90
5128;DHT22;2582;48.770;9.190;2023-12-20T13:07:41;8.20;99.90
5128;DHT22;2582;48.770;9.190;2023-12-20T13:10:10;8.30;99.90
5128;DHT22;2582;48.770;9.190;2023-12-20T13:12:36;8.30;99.90
5128;DHT22;2582;48.770;9.190;2023-12-20T13:15:02;8.50;99.90
5128;DHT22;2582;48.770;9.190;2023-12-20T13:17:29;8.50;99.90
5128;DHT22;2582;48.770;9.190;2023-12-20T13:19:55;8.30;99.90
5128;DHT22;2582;48.770;9.190;2023-12-20T13:22:20;8.30;99.90
5128;DHT22;2582;48.770;9.190;2023-12-20T13:24:46;8.20;99.90
5128;DHT22;2582;48.770;9.190;2023-12-20T13:27:11;8.20;99.90
5128;DHT22;2582;48.770;9.190;2023-12-20T13:29:37;8.40;99.90
5128;DHT22;2582;48.770;9.190;2023-12-20T13:32:02;8.70;99.90
5128;DHT22;2582;48.770;9.190;2023-12-20T13:34:29;9.00;99.90
5128;DHT22;2582;48.770;9.190;2023-12-20T13:36:55;8.90;99.90
5128;DHT22;2582;48.770;9.190;2023-12-20T13:39:20;8.70;99.90
5128;DHT22;2582;48.770;9.190;2023-12-20T13:41:46;8.60;99.90
5128;DHT22;2582;48.770;9.190;2023-12-20T13:44:12;8.80;99.90
5128;DHT22;2582;48.770;9.190;2023-12-20T13:46:38;8.90;99.90
5128;DHT22;2582;48.770;9.190;2023-12-20T13:49:04;8.90;99.90
5128;DHT22;2582;48.770;9.190;2023-12-20T13:51:30;8.60;99.90
5128;DHT22;2582;48.770;9.190;2023-12-20T13:53:56;8.20;99.90
5128;DHT22;2582;48.770;9.190;2023-12-20T13:56:22;8.00;99.90
5128;DHT22;2582;48.770;9.190;2023-12-20T13:58:48;7.90;99.90
5128;DHT22;2582;48.770;9.190;2023-12-20T14:01:14;7.90;99.90
5128;DHT22;2582;48.770;9.190;2023-12-20T14:03:40;8.00;99.90
5128;DHT22;2582;48.770;9.190;2023-12-20T14:06:06;8.00;99.90
5128;DHT22;2582;48.770;9.190;2023-12-20T14:08:32;8.00;99.90
5128;DHT22;2582;48.770;9.190;2023-12-20T14:10:57;8.00;99.90
5128;DHT22;2582;48.770;9.190;2023-12-20T14:13:23;8.00;99.90
5128;DHT22;2582;48.770;9.190;2023-12-20T14:15:49;8.10;99.90
5128;DHT22;2582;48.770;9.190;2023-12-20T14:18:15;8.10;99.90
5128;DHT22;2582;48.770;9.190;2023-12-20T14:20:41;7.90;99.90
5128;DHT22;2582;48.770;9.190;2023-12-20T14:23:08;7.90;99.90
5128;DHT22;2582;48.770;9.190;2023-12-20T14:25:35;8.10;99.90
5128;DHT22;2582;48.770;9.190;2023-12-20T14:28:05;8.00;99.90
5128;DHT22;2582;48.770;9.190;2023-12-20T14:30:31;8.00;99.90
5128;DHT22;2582;48.770;9.190;2023-12-20T14:32:57;8.00;99.90
5128;DHT22;2582;48.770;9.190;2023-12-20T14:35:23;8.00;99.90
5128;DHT22;2582;48.770;9.190;2023-12-20T14:37:49;7.90;99.90
5128;DHT22;2582;48.770;9.190;2023-12-20T14:40:15;7.80;99.90
5128;DHT22;2582;48.770;9.190;2023-12-20T14:42:42;7.70;99.90
5128;DHT22;2582;48.770;9.190;2023-12-20T14:45:09;7.70;99.90
5128;DHT22;2582;48.770;9.190;2023-12-20T14:47:34;7.60;99.90
5128;DHT22;2582;48.770;9.190;2023-12-20T14:50:02;7.60;99.90
5128;DHT22;2582;48.770;9.190;2023-12-20T14:52:29;7.60;99.90
5128;DHT22;2582;48.770;9.190;2023-12-20T14:54:55;7.60;99.90
5128;DHT22;2582;48.770;9.190;2023-12-20T14:57:20;7.60;99.90
5128;DHT22;2582;48.770;9.190;2023-12-20T14:59:46;7.60;99.90
5128;DHT22;2582;48.770;9.190;2023-12-20T15:02:11;7.70;99.90
5128;DHT22;2582;48.770;9.190;2023-12-20T15:04:37;7.50;99.90
5128;DHT22;2582;48.770;9.190;2023-12-20T15:07:03;7.40;99.90
5128;DHT22;2582;48.770;9.190;2023-12-20T15:09:31;7.60;99.90
5128;DHT22;2582;48.770;9.190;2023-12-20T15:11:57;7.50;99.90
5128;DHT22;2582;48.770;9.190;2023-12-20T15:14:22;7.70;99.90
5128;DHT22;2582;48.770;9.190;2023-12-20T15:16:48;7.70;99.90
5128;DHT22;2582;48.770;9.190;2023-12-20T15:19:14;7.80;99.90
5128;DHT22;2582;48.770;9.190;2023-12-20T15:21:40;7.60;99.90
5128;DHT22;2582;48.770;9.190;2023-12-20T15:24:08;7.50;99.90
5128;DHT22;2582;48.770;9.190;2023-12-20T15:26:41;7.40;99.90
5128;DHT22;2582;48.770;9.190;2023-12-20T15:29:06;7.60;99.90
5128;DHT22;2582;48.770;9.190;2023-12-20T15:31:32;7.60;99.90
5128;DHT22;2582;48.770;9.190;2023-12-20T15:33:59;7.40;99.90
5128;DHT22;2582;48.770;9.190;2023-12-20T15:36:24;7.30;99.90
5128;DHT22;2582;48.770;9.190;2023-12-20T15:38:51;7.40;99.90
5128;DHT22;2582;48.770;9.190;2023-12-20T15:41:21;7.50;99.90
5128;DHT22;2582;48.770;9.190;2023-12-20T15:43:46;7.50;99.90
5128;DHT22;2582;48.770;9.190;2023-12-20T15:46:13;7.60;99.90
5128;DHT22;2582;48.770;9.190;2023-12-20T15:48:38;7.60;99.90
5128;DHT22;2582;48.770;9.190;2023-12-20T15:51:05;7.40;99.90
5128;DHT22;2582;48.770;9.190;2023-12-20T15:53:31;7.50;99.90
5128;DHT22;2582;48.770;9.190;2023-12-20T15:55:56;7.60;99.90
5128;DHT22;2582;48.770;9.190;2023-12-20T15:58:22;7.50;99.90
5128;DHT22;2582;48.770;9.190;2023-12-20T16:00:47;7.40;99.90
5128;DHT22;2582;48.770;9.190;2023-12-20T16:03:14;7.60;99.90
5128;DHT22;2582;48.770;9.190;2023-12-20T16:05:40;7.70;99.90
5128;DHT22;2582;48.770;9.190;2023-12-20T16:08:05;7.70;99.90
5128;DHT22;2582;48.770;9.190;2023-12-20T16:10:31;7.60;99.90
5128;DHT22;2582;48.770;9.190;2023-12-20T16:12:57;7.50;99.90
5128;DHT22;2582;48.770;9.190;2023-12-20T16:15:22;7.60;99.90
5128;DHT22;2582;48.770;9.190;2023-12-20T16:17:48;7.50;99.90
5128;DHT22;2582;48.770;9.190;2023-12-20T16:20:13;7.50;99.90